Flight Track Log - Related Links

Times and Time Zones

All times are in EDT time to prevent confusion due to time zone crossing. See the N700QA flight status page for this flight to view local times or setup timezone preferences in your user account.


Time Position Orientation Groundspeed Altitude Reporting Facility
EDT Latitude Longitude Course Direction KTS MPH feet Rate Location/Type
Thu 03:57:06 PM 33.4333 -112.0333 248° West 172 198 2,000  Level Phoenix TRACON
Thu 03:58:36 PM 33.4000 -112.1333 248° West 208 239 4,900 1,882 Climbing Phoenix TRACON
Thu 03:59:55 PM 33.3667 -112.2333 248° West 277 319 7,300 1,748 Climbing Phoenix TRACON
Thu 04:00:43 PM 33.3667 -112.3000 270° West 274 315 8,600 1,645 Climbing Phoenix TRACON
Thu 04:01:59 PM 33.3869 -112.4011 284° West 274 315 10,700 1,890 Climbing Los Angeles Center
Thu 04:03:09 PM 33.4069 -112.5200 281° West 292 336 13,200 2,061 Climbing Albuquerque Center
Thu 04:04:10 PM 33.4189 -112.6128 279° West 299 344 15,200 1,728 Climbing Albuquerque Center
Thu 04:05:14 PM 33.4353 -112.7100 281° West 298 343 16,800 1,488 Climbing Albuquerque Center
Thu 04:06:15 PM 33.4500 -112.8100 280° West 304 350 18,300 1,537 Climbing Albuquerque Center
Thu 04:07:15 PM 33.4728 -112.9333 283° West 314 361 19,900 1,475 Climbing Albuquerque Center
Thu 04:08:17 PM 33.4939 -113.0378 284° West 321 369 21,300 1,190 Climbing Albuquerque Center
Thu 04:09:21 PM 33.5133 -113.1439 282° West 325 374 22,400 1,056 Climbing Albuquerque Center
Thu 04:10:22 PM 33.5344 -113.2503 283° West 329 379 23,500 942 Climbing Albuquerque Center
Thu 04:11:22 PM 33.5547 -113.3592 283° West 333 383 24,300 823 Climbing Albuquerque Center
Thu 04:12:26 PM 33.5761 -113.4722 283° West 342 394 25,200 919 Climbing Albuquerque Center
Thu 04:13:26 PM 33.6017 -113.6092 283° West 351 404 26,200 927 Climbing Albuquerque Center
Thu 04:14:29 PM 33.6211 -113.7131 283° West 355 409 27,100 823 Climbing Albuquerque Center
Thu 04:15:30 PM 33.6422 -113.8275 283° West 353 406 27,900 927 Climbing Albuquerque Center
Thu 04:16:32 PM 33.6692 -113.9664 283° West 355 409 29,000 912 Climbing Albuquerque Center
Thu 04:17:35 PM 33.6894 -114.0814 282° West 354 407 29,800 726 Climbing Albuquerque Center
Thu 04:18:36 PM 33.7097 -114.1961 282° West 352 405 30,500 778 Climbing Albuquerque Center
Thu 04:20:40 PM 33.7536 -114.4350 283° West 350 403 32,200 796 Climbing Albuquerque Center
Thu 04:21:52 PM 33.7778 -114.5786 281° West 346 398 33,100 627 Climbing Los Angeles Center
Thu 04:22:54 PM 33.7819 -114.6928 273° West 344 396 33,600 435 Climbing Los Angeles Center
Thu 04:23:56 PM 33.7861 -114.8081 273° West 346 398 34,000 194 Climbing Los Angeles Center
Thu 04:24:58 PM 33.7958 -114.9283 276° West 359 413 34,000 48 Level Los Angeles Center
Thu 04:26:00 PM 33.8011 -115.0508 273° West 369 425 34,100 48 Climbing Los Angeles Center
Thu 04:27:02 PM 33.8078 -115.1781 274° West 380 437 34,100  Level Los Angeles Center
Thu 04:28:04 PM 33.8161 -115.3364 274° West 395 455 34,100 -48 Level Los Angeles Center
Thu 04:29:06 PM 33.8272 -115.4681 276° West 399 459 34,000  Descending Los Angeles Center
Thu 04:30:09 PM 33.8653 -115.5903 291° West 390 449 34,100 48 Climbing Los Angeles Center
Thu 04:31:11 PM 33.9050 -115.7111 292° West 389 448 34,100 -48 Level Los Angeles Center
Thu 04:32:13 PM 33.9425 -115.8306 291° West 385 443 34,000  Descending Los Angeles Center
Thu 04:33:15 PM 33.9881 -115.9728 291° West 382 440 34,100 48 Climbing Los Angeles Center
Thu 04:34:17 PM 34.0264 -116.0914 291° West 381 438 34,100 -48 Level Los Angeles Center
Thu 04:35:19 PM 34.0628 -116.2111 290° West 382 440 34,000 -48 Descending Los Angeles Center
Thu 04:36:21 PM 34.1006 -116.3306 291° West 382 440 34,000  Level Los Angeles Center
Thu 04:37:24 PM 34.1406 -116.4608 290° West 385 443 34,000  Level Los Angeles Center
Thu 04:38:26 PM 34.1786 -116.5772 292° West 376 433 34,000  Level Los Angeles Center
Thu 04:39:28 PM 34.2153 -116.6983 290° West 382 440 34,000  Level Los Angeles Center
Thu 04:40:30 PM 34.2533 -116.8175 291° West 380 437 34,000  Level Los Angeles Center
Thu 04:41:32 PM 34.2972 -116.9619 290° West 381 438 34,000  Level Los Angeles Center
Thu 04:42:34 PM 34.3339 -117.0811 290° West 379 436 34,000  Level Los Angeles Center
Thu 04:43:36 PM 34.3694 -117.1972 290° West 380 437 34,000  Level Los Angeles Center
Thu 04:44:38 PM 34.3997 -117.3258 286° West 382 440 34,000  Level Los Angeles Center
Thu 04:45:41 PM 34.4094 -117.4558 275° West 386 444 34,000  Level Los Angeles Center
Thu 04:46:43 PM 34.4206 -117.5858 276° West 388 447 34,000  Level Los Angeles Center
Thu 04:47:45 PM 34.4383 -117.7156 279° West 394 453 34,000  Level Los Angeles Center
Thu 04:48:47 PM 34.5053 -117.8481 302° West 386 444 34,000  Level Los Angeles Center
Thu 04:49:49 PM 34.5597 -117.9603 301° West 386 444 34,000 387 Level Los Angeles Center
Thu 04:50:51 PM 34.6117 -118.0750 299° West 386 444 34,800 726 Climbing Los Angeles Center
Thu 04:51:53 PM 34.6633 -118.1825 300° West 373 429 35,500 576 Climbing Los Angeles Center
Thu 04:52:56 PM 34.7108 -118.2886 299° West 360 414 36,000 240 Climbing Los Angeles Center
Thu 04:53:58 PM 34.7597 -118.3950 299° West 359 413 36,000  Level Los Angeles Center
Thu 04:55:00 PM 34.8086 -118.5005 299° West  Level FlightAware Approximate
Thu 04:56:02 PM 34.8614 -118.6200 299° West 367 422 36,000  Level Los Angeles Center
Thu 04:57:04 PM 34.9200 -118.7458 300° West 361 415 36,000  Level Los Angeles Center
Thu 04:58:06 PM 34.9675 -118.8525 299° West 359 413 36,000  Level Los Angeles Center
Thu 04:59:08 PM 35.0164 -118.9594 299° West 361 415 36,000  Level Los Angeles Center
Thu 05:00:10 PM 35.0647 -119.0664 299° West 361 415 36,000  Level Los Angeles Center
Thu 05:01:12 PM 35.1028 -119.1517 299° West 360 414 36,000  Level Los Angeles Center
Thu 05:02:15 PM 35.1708 -119.3006 299° West 360 414 36,000  Level Los Angeles Center
Thu 05:03:17 PM 35.2186 -119.4072 299° West 360 414 36,000  Level Los Angeles Center
Thu 05:04:19 PM 35.2656 -119.5128 299° West 356 410 36,000  Level Los Angeles Center
Thu 05:05:21 PM 35.3139 -119.6197 299° West 360 414 36,000  Level Los Angeles Center
Thu 05:06:23 PM 35.3611 -119.7269 298° West 360 414 36,000  Level Los Angeles Center
Thu 05:07:25 PM 35.4067 -119.8339 298° West 360 414 36,000  Level Los Angeles Center
Thu 05:08:27 PM 35.4642 -119.9642 322° Northwest 363 418 36,000  Level Los Angeles Center
Thu 05:08:55 PM 35.4759 -119.9888 298° West  Level FlightAware Approximate
Thu 05:09:30 PM 35.5111 -120.0697 299° West 358 412 36,000  Level Los Angeles Center
Thu 05:10:32 PM 35.5583 -120.1794 298° West 364 419 36,000  Level Los Angeles Center
Thu 05:11:34 PM 35.6058 -120.2889 298° West 366 421 36,000  Level Los Angeles Center
Thu 05:12:36 PM 35.6614 -120.4178 298° West 366 421 36,000  Level Los Angeles Center
Thu 05:13:22 PM 35.6989 -120.5047 298° West 364 419 36,000 -168 Level Oakland Center
Thu 05:14:23 PM 35.7456 -120.6150 298° West 366 421 35,700 -585 Descending Oakland Center
Thu 05:15:00 PM 35.7469 -120.6253 298° West  Level FlightAware Approximate
Thu 05:15:25 PM 35.7950 -120.7292 298° West 376 433 34,800  Level Oakland Center
Thu 05:16:00 PM 35.7917 -120.7300 298° West  Level FlightAware Approximate
Thu 05:16:27 PM 35.8447 -120.8442 298° West 380 437 33,900  Level Oakland Center
Thu 05:17:00 PM 35.8364 -120.8348 298° West  Level FlightAware Approximate
Thu 05:17:28 PM 35.8933 -120.9603 297° West 382 440 33,000  Level Oakland Center
Thu 05:18:00 PM 35.8796 -120.9406 296° West  Level FlightAware Approximate
Thu 05:18:30 PM 35.9425 -121.0764 298° West 384 442 33,000  Level Oakland Center
Thu 05:19:00 PM 35.9235 -121.0460 297° West  Level FlightAware Approximate
Thu 05:19:31 PM 35.9908 -121.1917 297° West 379 436 32,200  Level Oakland Center
Thu 05:20:00 PM 35.9675 -121.1514 297° West  Level FlightAware Approximate
Thu 05:20:33 PM 36.0511 -121.3333 298° West 389 448 29,500  Level Oakland Center
Thu 05:21:00 PM 36.0114 -121.2570 297° West  Level FlightAware Approximate
Thu 05:21:34 PM 36.0975 -121.4458 297° West 372 428 28,000  Level Oakland Center
Thu 05:22:00 PM 36.0560 -121.3621 302° West  Level FlightAware Approximate
Thu 05:22:36 PM 36.1658 -121.5225 318° Northwest 340 391 26,400  Level Oakland Center
Thu 05:23:00 PM 36.1002 -121.4671 302° West  Level FlightAware Approximate
Thu 05:23:38 PM 36.2483 -121.5831 329° Northwest 342 394 24,900  Level Oakland Center
Thu 05:24:00 PM 36.1440 -121.5727 295° West  Level FlightAware Approximate
Thu 05:24:39 PM 36.3300 -121.6456 328° Northwest 344 396 23,600  Level Oakland Center
Thu 05:25:00 PM 36.2027 -121.6603 329° Northwest  Level FlightAware Approximate
Thu 05:25:27 PM 36.4000 -121.7000 328° Northwest 350 403 23,000  Level Northern Cal TRACON
Thu 05:26:00 PM 36.2802 -121.7302 321° Northwest  Level FlightAware Approximate
Thu 05:27:00 PM 36.3607 -121.7951 327° Northwest  Level FlightAware Approximate
Thu 05:27:27 PM 36.5667 -121.8333 327° Northwest 343 395 21,500  Level Northern Cal TRACON
Thu 05:28:00 PM 36.4414 -121.8597 327° Northwest  Level FlightAware Approximate
Thu 05:28:27 PM 36.6167 -121.8833 321° Northwest 332 382 21,500  Level Northern Cal TRACON
Thu 05:29:00 PM 36.5304 -121.8909 349° North  Level FlightAware Approximate
Thu 05:29:27 PM 36.7167 -121.9500 332° Northwest 323 372 18,400  Level Northern Cal TRACON
Thu 05:30:00 PM 36.6242 -121.9164 347° North  Level FlightAware Approximate
Thu 05:30:21 PM 36.8000 -121.9833 342° North 321 369 16,700  Level Northern Cal TRACON
Thu 05:31:00 PM 36.7175 -121.9447 345° North  Level FlightAware Approximate
Thu 05:31:27 PM 36.8833 -122.0000 351° North 314 361 14,900  Level Northern Cal TRACON
Thu 05:32:00 PM 36.8096 -121.9774 349° North  Level FlightAware Approximate
Thu 05:32:27 PM 36.9667 -122.0333 342° North 313 360 12,600  Level Northern Cal TRACON
Thu 05:33:00 PM 36.9037 -122.0006 352° North  Level FlightAware Approximate
Thu 05:33:21 PM 37.0500 -122.0500 351° North 292 336 11,500  Level Northern Cal TRACON
Thu 05:33:53 PM 37.0811 -122.0556 352° North 294 338 11,100 -894 Descending Oakland Center
Thu 05:34:00 PM 36.9989 -122.0165 352° North  Level FlightAware Approximate
Thu 05:34:55 PM 37.1603 -122.0781 347° North 292 336 10,100  Level Oakland Center
Thu 05:35:00 PM 37.0883 -122.0536 352° North  Level FlightAware Approximate
Thu 05:35:56 PM 37.2392 -122.0975 349° North 288 331 9,300  Level Oakland Center
Thu 05:36:00 PM 37.1833 -122.0714 347° North  Level FlightAware Approximate
Thu 05:36:58 PM 37.3114 -122.1131 350° North 268 308 7,300  Level Oakland Center
Thu 05:37:00 PM 37.2769 -122.0982 347° North  Level FlightAware Approximate
Thu 05:37:59 PM 37.3961 -122.1386 347° North 261 300 5,400  Level Oakland Center
Thu 05:38:00 PM 37.3713 -122.1178 349° North  Level FlightAware Approximate
Thu 05:39:00 PM 37.4590 -122.1590 322° Northwest  Level FlightAware Approximate
Thu 05:39:01 PM 37.4614 -122.1597 346° North 248 285 4,300  Level Oakland Center
Thu 05:40:00 PM 37.5237 -122.2482 313° West  Level FlightAware Approximate
Thu 05:40:02 PM 37.5125 -122.1878 336° Northwest 221 254 3,300  Level Oakland Center
Thu 05:41:00 PM 37.5897 -122.3362 313° West  Level FlightAware Approximate
Thu 05:41:04 PM 37.5486 -122.2267 320° Northwest 195 224 2,400  Level Oakland Center
Thu 05:42:00 PM 37.6167 -122.3667 322° Northwest  Level FlightAware Approximate
Thu 05:42:06 PM 37.5772 -122.2717 309° West 177 204 1,800  Level Oakland Center
Thu 05:43:00 PM 37.6191 -122.3752 322° Northwest  Level Estimated
Thu 05:43:07 PM 37.5961 -122.3197 296° West 163 188 900  Level Oakland Center
Thu 05:44:00 PM 37.6167 -122.3667 322° Northwest  Level FlightAware Approximate
Thu 05:44:09 PM 37.6139 -122.3653 296° West 152 175 2,200  Level Oakland Center
Thu 05:45:00 PM 37.6191 -122.3752 322° Northwest  Level Estimated
Thu 05:45:11 PM 37.6378 -122.4444 291° West 183 211 3,000  Level Oakland Center
Thu 05:46:00 PM 37.6167 -122.3667 322° Northwest  Level FlightAware Approximate
Thu 05:46:12 PM 37.6572 -122.5147 289° West 200 230 3,500  Level Oakland Center
Thu 05:47:00 PM 37.6191 -122.3752 322° Northwest  Level Estimated
Thu 05:47:14 PM 37.6128 -122.5369 202° Southwest 221 254 4,500  Level Oakland Center
Thu 05:48:00 PM 37.6167 -122.3667 322° Northwest  Level FlightAware Approximate
Thu 05:48:15 PM 37.5731 -122.4686 126° Southeast 244 281 5,000  Level Oakland Center
Thu 05:49:00 PM 37.6191 -122.3752 322° Northwest  Level Estimated
Thu 05:49:17 PM 37.5386 -122.3908 119° Southeast 254 292 5,000  Level Oakland Center
Thu 05:50:00 PM 37.6167 -122.3667 322° Northwest  Level FlightAware Approximate
Thu 05:50:19 PM 37.5100 -122.3156 116° Southeast 243 280 5,000  Level Oakland Center
Thu 05:51:00 PM 37.6191 -122.3752 322° Northwest  Level Estimated
Thu 05:51:20 PM 37.4858 -122.2536 116° Southeast 213 245 5,000  Level Oakland Center
Thu 05:52:00 PM 37.6167 -122.3667 322° Northwest  Level FlightAware Approximate
Thu 05:52:22 PM 37.4633 -122.1761 110° East 203 234 4,600  Level Oakland Center
Thu 05:53:00 PM 37.6191 -122.3752 322° Northwest  Level Estimated
Thu 05:53:23 PM 37.5039 -122.1381 37° Northeast 189 217 4,100  Level Oakland Center
Thu 05:54:00 PM 37.6167 -122.3667 322° Northwest  Level FlightAware Approximate
Thu 05:54:25 PM 37.5350 -122.1772 315° West 173 199 3,400  Level Oakland Center
Thu 05:55:00 PM 37.6191 -122.3752 322° Northwest  Level Estimated
Thu 05:55:27 PM 37.5558 -122.2275 298° West 165 190 2,600  Level Oakland Center
Thu 05:56:00 PM 37.6167 -122.3667 322° Northwest  Level FlightAware Approximate
Thu 05:56:29 PM 37.5772 -122.2781 298° West 164 189 1,700  Level Oakland Center
Thu 05:57:00 PM 37.6191 -122.3752 322° Northwest  Level Estimated
Thu 05:57:30 PM 37.5986 -122.3261 299° West 162 186 700  Level Oakland Center
Thu 05:58:00 PM 37.6167 -122.3667 322° Northwest  Level FlightAware Approximate
Thu 05:58:32 PM 37.6175 -122.3706 298° West 151 174 300  Level Oakland Center

Login

Don't have an account? Register now (free) for customized features, flight alerts, and more!